sensor_id;sensor_type;location;lat;lon;timestamp;P1;durP1;ratioP1;P2;durP2;ratioP2
57337;SDS011;43173;50.980;18.204;2022-10-16T00:02:21;14.20;;;9.60;;
57337;SDS011;43173;50.980;18.204;2022-10-16T00:04:46;16.00;;;9.60;;
57337;SDS011;43173;50.980;18.204;2022-10-16T00:07:12;15.90;;;9.70;;
57337;SDS011;43173;50.980;18.204;2022-10-16T00:09:37;17.20;;;10.70;;
57337;SDS011;43173;50.980;18.204;2022-10-16T00:12:03;16.20;;;10.80;;
57337;SDS011;43173;50.980;18.204;2022-10-16T00:14:29;17.60;;;10.80;;
57337;SDS011;43173;50.980;18.204;2022-10-16T00:16:55;18.70;;;11.40;;
57337;SDS011;43173;50.980;18.204;2022-10-16T00:19:20;17.90;;;11.20;;
57337;SDS011;43173;50.980;18.204;2022-10-16T00:21:46;18.60;;;11.30;;
57337;SDS011;43173;50.980;18.204;2022-10-16T00:24:11;15.60;;;11.60;;
57337;SDS011;43173;50.980;18.204;2022-10-16T00:26:37;19.00;;;12.10;;
57337;SDS011;43173;50.980;18.204;2022-10-16T00:29:04;19.30;;;11.50;;
57337;SDS011;43173;50.980;18.204;2022-10-16T00:31:30;18.80;;;12.00;;
57337;SDS011;43173;50.980;18.204;2022-10-16T00:33:56;20.60;;;12.70;;
57337;SDS011;43173;50.980;18.204;2022-10-16T00:36:23;19.30;;;12.70;;
57337;SDS011;43173;50.980;18.204;2022-10-16T00:38:51;20.40;;;13.60;;
57337;SDS011;43173;50.980;18.204;2022-10-16T00:41:19;21.70;;;13.80;;
57337;SDS011;43173;50.980;18.204;2022-10-16T00:43:46;21.50;;;13.10;;
57337;SDS011;43173;50.980;18.204;2022-10-16T00:48:48;24.90;;;14.20;;
57337;SDS011;43173;50.980;18.204;2022-10-16T00:51:21;25.10;;;14.50;;
57337;SDS011;43173;50.980;18.204;2022-10-16T00:53:49;24.50;;;14.00;;
57337;SDS011;43173;50.980;18.204;2022-10-16T00:56:15;26.00;;;14.50;;
57337;SDS011;43173;50.980;18.204;2022-10-16T00:58:41;28.70;;;16.20;;
57337;SDS011;43173;50.980;18.204;2022-10-16T01:01:07;26.00;;;15.40;;
57337;SDS011;43173;50.980;18.204;2022-10-16T01:03:34;28.80;;;16.10;;
57337;SDS011;43173;50.980;18.204;2022-10-16T01:14:22;28.10;;;17.60;;
57337;SDS011;43173;50.980;18.204;2022-10-16T01:17:02;28.30;;;17.20;;
57337;SDS011;43173;50.980;18.204;2022-10-16T01:21:56;26.60;;;16.30;;
57337;SDS011;43173;50.980;18.204;2022-10-16T01:29:51;29.50;;;17.10;;
57337;SDS011;43173;50.980;18.204;2022-10-16T01:32:22;33.20;;;17.50;;
57337;SDS011;43173;50.980;18.204;2022-10-16T01:37:40;30.60;;;17.30;;
57337;SDS011;43173;50.980;18.204;2022-10-16T01:40:12;30.70;;;16.90;;
57337;SDS011;43173;50.980;18.204;2022-10-16T01:42:42;28.20;;;17.80;;
57337;SDS011;43173;50.980;18.204;2022-10-16T01:45:10;31.60;;;19.00;;
57337;SDS011;43173;50.980;18.204;2022-10-16T01:47:38;31.80;;;18.80;;
57337;SDS011;43173;50.980;18.204;2022-10-16T01:50:05;33.80;;;18.90;;
57337;SDS011;43173;50.980;18.204;2022-10-16T01:52:32;33.80;;;18.90;;
57337;SDS011;43173;50.980;18.204;2022-10-16T01:55:00;33.00;;;19.50;;
57337;SDS011;43173;50.980;18.204;2022-10-16T01:57:29;36.50;;;19.00;;
57337;SDS011;43173;50.980;18.204;2022-10-16T01:59:56;32.20;;;19.40;;
57337;SDS011;43173;50.980;18.204;2022-10-16T02:02:26;33.90;;;19.50;;
57337;SDS011;43173;50.980;18.204;2022-10-16T02:04:59;34.20;;;19.10;;
57337;SDS011;43173;50.980;18.204;2022-10-16T02:07:30;29.80;;;18.00;;
57337;SDS011;43173;50.980;18.204;2022-10-16T02:09:56;32.50;;;18.00;;
57337;SDS011;43173;50.980;18.204;2022-10-16T02:12:26;30.90;;;18.20;;
57337;SDS011;43173;50.980;18.204;2022-10-16T02:17:20;30.30;;;18.30;;
57337;SDS011;43173;50.980;18.204;2022-10-16T02:19:48;32.40;;;18.30;;
57337;SDS011;43173;50.980;18.204;2022-10-16T02:22:23;34.30;;;20.10;;
57337;SDS011;43173;50.980;18.204;2022-10-16T02:24:56;32.30;;;19.20;;
57337;SDS011;43173;50.980;18.204;2022-10-16T02:30:36;30.30;;;17.90;;
57337;SDS011;43173;50.980;18.204;2022-10-16T02:33:12;32.30;;;18.80;;
57337;SDS011;43173;50.980;18.204;2022-10-16T02:35:39;29.10;;;17.80;;
57337;SDS011;43173;50.980;18.204;2022-10-16T02:38:05;29.90;;;18.90;;
57337;SDS011;43173;50.980;18.204;2022-10-16T02:40:31;33.40;;;18.40;;
57337;SDS011;43173;50.980;18.204;2022-10-16T02:42:57;29.20;;;17.80;;
57337;SDS011;43173;50.980;18.204;2022-10-16T02:45:23;28.70;;;17.10;;
57337;SDS011;43173;50.980;18.204;2022-10-16T02:47:49;30.80;;;17.80;;
57337;SDS011;43173;50.980;18.204;2022-10-16T02:50:14;31.30;;;18.90;;
57337;SDS011;43173;50.980;18.204;2022-10-16T02:52:40;32.30;;;17.80;;
57337;SDS011;43173;50.980;18.204;2022-10-16T02:55:06;27.40;;;17.40;;
57337;SDS011;43173;50.980;18.204;2022-10-16T02:57:32;31.60;;;18.30;;
57337;SDS011;43173;50.980;18.204;2022-10-16T02:59:58;28.30;;;17.80;;
57337;SDS011;43173;50.980;18.204;2022-10-16T03:02:24;31.90;;;18.00;;
57337;SDS011;43173;50.980;18.204;2022-10-16T03:04:49;29.70;;;18.50;;
57337;SDS011;43173;50.980;18.204;2022-10-16T03:07:15;30.20;;;17.40;;
57337;SDS011;43173;50.980;18.204;2022-10-16T03:09:40;28.20;;;18.60;;
57337;SDS011;43173;50.980;18.204;2022-10-16T03:12:06;28.40;;;16.80;;
57337;SDS011;43173;50.980;18.204;2022-10-16T03:14:32;28.10;;;16.80;;
57337;SDS011;43173;50.980;18.204;2022-10-16T03:16:58;24.40;;;16.40;;
57337;SDS011;43173;50.980;18.204;2022-10-16T03:19:23;27.50;;;16.80;;
57337;SDS011;43173;50.980;18.204;2022-10-16T03:21:49;25.40;;;16.50;;
57337;SDS011;43173;50.980;18.204;2022-10-16T03:24:15;25.70;;;16.90;;
57337;SDS011;43173;50.980;18.204;2022-10-16T03:26:40;24.20;;;15.90;;
57337;SDS011;43173;50.980;18.204;2022-10-16T03:29:06;22.20;;;15.70;;
57337;SDS011;43173;50.980;18.204;2022-10-16T03:31:32;26.70;;;15.80;;
57337;SDS011;43173;50.980;18.204;2022-10-16T03:33:57;24.00;;;15.50;;
57337;SDS011;43173;50.980;18.204;2022-10-16T03:36:23;23.00;;;15.80;;
57337;SDS011;43173;50.980;18.204;2022-10-16T03:38:49;27.20;;;15.50;;
57337;SDS011;43173;50.980;18.204;2022-10-16T03:41:14;25.50;;;15.10;;
57337;SDS011;43173;50.980;18.204;2022-10-16T03:43:40;22.80;;;15.40;;
57337;SDS011;43173;50.980;18.204;2022-10-16T03:46:05;27.60;;;15.10;;
57337;SDS011;43173;50.980;18.204;2022-10-16T03:48:31;24.50;;;15.30;;
57337;SDS011;43173;50.980;18.204;2022-10-16T03:50:57;25.50;;;15.90;;
57337;SDS011;43173;50.980;18.204;2022-10-16T03:53:23;24.80;;;15.40;;
57337;SDS011;43173;50.980;18.204;2022-10-16T03:55:49;21.70;;;15.00;;
57337;SDS011;43173;50.980;18.204;2022-10-16T03:58:14;23.70;;;15.50;;
57337;SDS011;43173;50.980;18.204;2022-10-16T04:00:41;25.90;;;15.30;;
57337;SDS011;43173;50.980;18.204;2022-10-16T04:03:07;26.50;;;14.70;;
57337;SDS011;43173;50.980;18.204;2022-10-16T04:05:33;23.50;;;15.30;;
57337;SDS011;43173;50.980;18.204;2022-10-16T04:07:59;23.50;;;15.00;;
57337;SDS011;43173;50.980;18.204;2022-10-16T04:10:24;22.00;;;15.30;;
57337;SDS011;43173;50.980;18.204;2022-10-16T04:12:50;22.80;;;15.90;;
57337;SDS011;43173;50.980;18.204;2022-10-16T04:15:15;27.70;;;15.90;;
57337;SDS011;43173;50.980;18.204;2022-10-16T04:17:41;25.50;;;15.10;;
57337;SDS011;43173;50.980;18.204;2022-10-16T04:20:07;23.30;;;15.20;;
57337;SDS011;43173;50.980;18.204;2022-10-16T04:22:33;25.80;;;16.10;;
57337;SDS011;43173;50.980;18.204;2022-10-16T04:24:58;27.10;;;16.80;;
57337;SDS011;43173;50.980;18.204;2022-10-16T04:27:24;28.40;;;17.50;;
57337;SDS011;43173;50.980;18.204;2022-10-16T04:29:50;24.80;;;15.90;;
57337;SDS011;43173;50.980;18.204;2022-10-16T04:32:16;26.00;;;16.80;;
57337;SDS011;43173;50.980;18.204;2022-10-16T04:34:41;25.50;;;15.90;;
57337;SDS011;43173;50.980;18.204;2022-10-16T04:37:07;31.40;;;17.60;;
57337;SDS011;43173;50.980;18.204;2022-10-16T04:39:32;27.20;;;17.70;;
57337;SDS011;43173;50.980;18.204;2022-10-16T04:41:58;29.80;;;18.00;;
57337;SDS011;43173;50.980;18.204;2022-10-16T04:44:23;29.50;;;17.20;;
57337;SDS011;43173;50.980;18.204;2022-10-16T04:46:52;29.00;;;17.50;;
57337;SDS011;43173;50.980;18.204;2022-10-16T04:49:18;32.20;;;18.40;;
57337;SDS011;43173;50.980;18.204;2022-10-16T04:51:44;28.40;;;18.20;;
57337;SDS011;43173;50.980;18.204;2022-10-16T04:54:09;29.00;;;18.10;;
57337;SDS011;43173;50.980;18.204;2022-10-16T04:56:35;28.50;;;18.30;;
57337;SDS011;43173;50.980;18.204;2022-10-16T04:59:08;31.00;;;18.40;;
57337;SDS011;43173;50.980;18.204;2022-10-16T05:01:34;31.30;;;17.80;;
57337;SDS011;43173;50.980;18.204;2022-10-16T05:04:00;28.60;;;18.00;;
57337;SDS011;43173;50.980;18.204;2022-10-16T05:06:25;31.90;;;19.80;;
57337;SDS011;43173;50.980;18.204;2022-10-16T05:08:51;33.40;;;19.70;;
57337;SDS011;43173;50.980;18.204;2022-10-16T05:11:16;29.70;;;18.50;;
57337;SDS011;43173;50.980;18.204;2022-10-16T05:13:42;34.20;;;19.20;;
57337;SDS011;43173;50.980;18.204;2022-10-16T05:16:07;33.30;;;19.90;;
57337;SDS011;43173;50.980;18.204;2022-10-16T05:18:33;32.10;;;19.90;;
57337;SDS011;43173;50.980;18.204;2022-10-16T05:20:58;33.30;;;20.60;;
57337;SDS011;43173;50.980;18.204;2022-10-16T05:23:23;34.80;;;20.70;;
57337;SDS011;43173;50.980;18.204;2022-10-16T05:25:56;34.30;;;20.90;;
57337;SDS011;43173;50.980;18.204;2022-10-16T05:28:27;36.30;;;21.50;;
57337;SDS011;43173;50.980;18.204;2022-10-16T05:30:53;30.40;;;18.70;;
57337;SDS011;43173;50.980;18.204;2022-10-16T05:33:23;32.20;;;19.30;;
57337;SDS011;43173;50.980;18.204;2022-10-16T05:35:49;34.80;;;21.00;;
57337;SDS011;43173;50.980;18.204;2022-10-16T05:38:16;34.80;;;20.80;;
57337;SDS011;43173;50.980;18.204;2022-10-16T05:40:42;35.00;;;19.80;;
57337;SDS011;43173;50.980;18.204;2022-10-16T05:43:08;33.70;;;20.80;;
57337;SDS011;43173;50.980;18.204;2022-10-16T05:45:33;33.20;;;20.50;;
57337;SDS011;43173;50.980;18.204;2022-10-16T05:47:59;34.80;;;21.50;;
57337;SDS011;43173;50.980;18.204;2022-10-16T05:50:25;31.30;;;21.10;;
57337;SDS011;43173;50.980;18.204;2022-10-16T05:52:51;33.10;;;20.30;;
57337;SDS011;43173;50.980;18.204;2022-10-16T05:55:16;32.10;;;20.10;;
57337;SDS011;43173;50.980;18.204;2022-10-16T05:57:42;35.50;;;20.90;;
57337;SDS011;43173;50.980;18.204;2022-10-16T06:00:08;34.30;;;20.40;;
57337;SDS011;43173;50.980;18.204;2022-10-16T06:02:34;34.50;;;20.80;;
57337;SDS011;43173;50.980;18.204;2022-10-16T06:05:00;33.30;;;20.70;;
57337;SDS011;43173;50.980;18.204;2022-10-16T06:07:25;31.10;;;19.80;;
57337;SDS011;43173;50.980;18.204;2022-10-16T06:09:51;31.40;;;19.60;;
57337;SDS011;43173;50.980;18.204;2022-10-16T06:12:18;32.50;;;20.90;;
57337;SDS011;43173;50.980;18.204;2022-10-16T06:14:44;31.30;;;20.60;;
57337;SDS011;43173;50.980;18.204;2022-10-16T06:17:12;39.50;;;21.10;;
57337;SDS011;43173;50.980;18.204;2022-10-16T06:19:39;29.60;;;20.30;;
57337;SDS011;43173;50.980;18.204;2022-10-16T06:22:05;30.20;;;19.90;;
57337;SDS011;43173;50.980;18.204;2022-10-16T06:24:31;34.20;;;20.90;;
57337;SDS011;43173;50.980;18.204;2022-10-16T06:26:57;32.00;;;20.80;;
57337;SDS011;43173;50.980;18.204;2022-10-16T06:29:22;34.80;;;21.40;;
57337;SDS011;43173;50.980;18.204;2022-10-16T06:31:48;35.50;;;21.10;;
57337;SDS011;43173;50.980;18.204;2022-10-16T06:34:13;30.70;;;19.70;;
57337;SDS011;43173;50.980;18.204;2022-10-16T06:36:39;29.20;;;18.80;;
57337;SDS011;43173;50.980;18.204;2022-10-16T06:39:06;32.40;;;19.20;;
57337;SDS011;43173;50.980;18.204;2022-10-16T06:41:35;29.80;;;19.80;;
57337;SDS011;43173;50.980;18.204;2022-10-16T06:44:01;29.00;;;18.80;;
57337;SDS011;43173;50.980;18.204;2022-10-16T06:46:30;32.20;;;19.40;;
57337;SDS011;43173;50.980;18.204;2022-10-16T06:48:55;30.60;;;18.80;;
57337;SDS011;43173;50.980;18.204;2022-10-16T06:51:21;30.00;;;19.40;;
57337;SDS011;43173;50.980;18.204;2022-10-16T06:53:49;33.20;;;20.30;;
57337;SDS011;43173;50.980;18.204;2022-10-16T06:56:16;32.10;;;21.20;;
57337;SDS011;43173;50.980;18.204;2022-10-16T06:58:46;30.40;;;19.30;;
57337;SDS011;43173;50.980;18.204;2022-10-16T07:01:13;29.70;;;19.90;;
57337;SDS011;43173;50.980;18.204;2022-10-16T07:03:40;28.20;;;19.60;;
57337;SDS011;43173;50.980;18.204;2022-10-16T07:06:08;31.00;;;19.50;;
57337;SDS011;43173;50.980;18.204;2022-10-16T07:08:35;28.50;;;19.80;;
57337;SDS011;43173;50.980;18.204;2022-10-16T07:11:03;29.90;;;19.70;;
57337;SDS011;43173;50.980;18.204;2022-10-16T07:13:34;30.20;;;20.20;;
57337;SDS011;43173;50.980;18.204;2022-10-16T07:16:19;32.00;;;19.10;;
57337;SDS011;43173;50.980;18.204;2022-10-16T07:18:46;29.20;;;19.50;;
57337;SDS011;43173;50.980;18.204;2022-10-16T07:21:17;31.00;;;19.70;;
57337;SDS011;43173;50.980;18.204;2022-10-16T07:23:45;27.20;;;18.20;;
57337;SDS011;43173;50.980;18.204;2022-10-16T07:26:15;27.50;;;18.80;;
57337;SDS011;43173;50.980;18.204;2022-10-16T07:28:41;26.40;;;18.50;;
57337;SDS011;43173;50.980;18.204;2022-10-16T07:31:10;27.60;;;19.50;;
57337;SDS011;43173;50.980;18.204;2022-10-16T07:33:37;29.60;;;19.00;;
57337;SDS011;43173;50.980;18.204;2022-10-16T07:36:04;28.30;;;19.60;;
57337;SDS011;43173;50.980;18.204;2022-10-16T07:38:30;27.80;;;18.40;;
57337;SDS011;43173;50.980;18.204;2022-10-16T07:41:00;26.50;;;18.50;;
57337;SDS011;43173;50.980;18.204;2022-10-16T07:43:27;27.20;;;18.70;;
57337;SDS011;43173;50.980;18.204;2022-10-16T07:45:53;27.00;;;16.30;;
57337;SDS011;43173;50.980;18.204;2022-10-16T07:48:20;26.30;;;17.90;;
57337;SDS011;43173;50.980;18.204;2022-10-16T07:50:46;27.00;;;17.90;;
57337;SDS011;43173;50.980;18.204;2022-10-16T07:53:12;25.30;;;16.10;;
57337;SDS011;43173;50.980;18.204;2022-10-16T07:55:38;24.70;;;16.10;;
57337;SDS011;43173;50.980;18.204;2022-10-16T07:58:04;25.60;;;16.60;;
57337;SDS011;43173;50.980;18.204;2022-10-16T08:00:30;24.20;;;17.00;;
57337;SDS011;43173;50.980;18.204;2022-10-16T08:02:59;21.20;;;16.30;;
57337;SDS011;43173;50.980;18.204;2022-10-16T08:05:26;21.70;;;15.10;;
57337;SDS011;43173;50.980;18.204;2022-10-16T08:07:54;20.50;;;15.10;;
57337;SDS011;43173;50.980;18.204;2022-10-16T08:10:21;24.00;;;14.80;;
57337;SDS011;43173;50.980;18.204;2022-10-16T08:12:48;23.30;;;15.40;;
57337;SDS011;43173;50.980;18.204;2022-10-16T08:15:13;21.70;;;14.40;;
57337;SDS011;43173;50.980;18.204;2022-10-16T08:17:39;19.50;;;13.80;;
57337;SDS011;43173;50.980;18.204;2022-10-16T08:20:05;19.70;;;14.80;;
57337;SDS011;43173;50.980;18.204;2022-10-16T08:22:31;19.00;;;14.10;;
57337;SDS011;43173;50.980;18.204;2022-10-16T08:24:56;21.60;;;14.00;;
57337;SDS011;43173;50.980;18.204;2022-10-16T08:27:22;20.80;;;15.00;;
57337;SDS011;43173;50.980;18.204;2022-10-16T08:29:48;19.90;;;14.30;;
57337;SDS011;43173;50.980;18.204;2022-10-16T08:32:15;24.70;;;14.80;;
57337;SDS011;43173;50.980;18.204;2022-10-16T08:34:40;21.40;;;14.70;;
57337;SDS011;43173;50.980;18.204;2022-10-16T08:37:06;20.50;;;14.30;;
57337;SDS011;43173;50.980;18.204;2022-10-16T08:39:33;21.00;;;13.40;;
57337;SDS011;43173;50.980;18.204;2022-10-16T08:44:34;20.90;;;14.60;;
57337;SDS011;43173;50.980;18.204;2022-10-16T08:47:22;20.30;;;13.80;;
57337;SDS011;43173;50.980;18.204;2022-10-16T08:50:10;20.80;;;14.20;;
57337;SDS011;43173;50.980;18.204;2022-10-16T08:52:39;22.10;;;13.20;;
57337;SDS011;43173;50.980;18.204;2022-10-16T08:55:06;18.60;;;13.20;;
57337;SDS011;43173;50.980;18.204;2022-10-16T08:57:31;21.30;;;13.40;;
57337;SDS011;43173;50.980;18.204;2022-10-16T08:59:59;19.30;;;13.10;;
57337;SDS011;43173;50.980;18.204;2022-10-16T09:02:31;18.40;;;12.70;;
57337;SDS011;43173;50.980;18.204;2022-10-16T09:07:47;16.70;;;12.50;;
57337;SDS011;43173;50.980;18.204;2022-10-16T09:12:58;17.70;;;12.50;;
57337;SDS011;43173;50.980;18.204;2022-10-16T09:16:10;18.20;;;12.30;;
57337;SDS011;43173;50.980;18.204;2022-10-16T09:18:45;16.60;;;12.10;;
57337;SDS011;43173;50.980;18.204;2022-10-16T09:24:12;20.60;;;12.30;;
57337;SDS011;43173;50.980;18.204;2022-10-16T09:26:40;16.40;;;11.70;;
57337;SDS011;43173;50.980;18.204;2022-10-16T09:29:05;16.00;;;10.80;;
57337;SDS011;43173;50.980;18.204;2022-10-16T09:31:32;17.60;;;12.60;;
57337;SDS011;43173;50.980;18.204;2022-10-16T09:34:02;17.50;;;12.20;;
57337;SDS011;43173;50.980;18.204;2022-10-16T09:36:35;15.20;;;11.50;;
57337;SDS011;43173;50.980;18.204;2022-10-16T09:39:06;14.00;;;11.20;;
57337;SDS011;43173;50.980;18.204;2022-10-16T09:41:37;17.30;;;12.00;;
57337;SDS011;43173;50.980;18.204;2022-10-16T09:44:04;15.10;;;11.80;;
57337;SDS011;43173;50.980;18.204;2022-10-16T09:46:39;15.70;;;11.80;;
57337;SDS011;43173;50.980;18.204;2022-10-16T09:49:17;16.40;;;11.50;;
57337;SDS011;43173;50.980;18.204;2022-10-16T09:51:48;17.60;;;12.20;;
57337;SDS011;43173;50.980;18.204;2022-10-16T09:54:19;15.20;;;11.30;;
57337;SDS011;43173;50.980;18.204;2022-10-16T09:56:45;16.90;;;11.20;;
57337;SDS011;43173;50.980;18.204;2022-10-16T09:59:18;15.20;;;10.50;;
57337;SDS011;43173;50.980;18.204;2022-10-16T10:04:16;13.80;;;10.60;;
57337;SDS011;43173;50.980;18.204;2022-10-16T10:06:46;15.50;;;10.50;;
57337;SDS011;43173;50.980;18.204;2022-10-16T10:11:44;16.00;;;11.60;;
57337;SDS011;43173;50.980;18.204;2022-10-16T10:14:22;18.50;;;11.30;;
57337;SDS011;43173;50.980;18.204;2022-10-16T10:30:13;17.50;;;11.00;;
57337;SDS011;43173;50.980;18.204;2022-10-16T10:38:34;16.10;;;10.80;;
57337;SDS011;43173;50.980;18.204;2022-10-16T10:46:13;12.40;;;10.90;;
57337;SDS011;43173;50.980;18.204;2022-10-16T10:51:18;15.10;;;11.00;;
57337;SDS011;43173;50.980;18.204;2022-10-16T10:53:52;12.40;;;9.80;;
57337;SDS011;43173;50.980;18.204;2022-10-16T11:08:00;15.20;;;10.20;;
57337;SDS011;43173;50.980;18.204;2022-10-16T11:11:02;13.80;;;9.60;;
57337;SDS011;43173;50.980;18.204;2022-10-16T11:13:28;13.60;;;10.00;;
57337;SDS011;43173;50.980;18.204;2022-10-16T11:15:58;13.80;;;9.40;;
57337;SDS011;43173;50.980;18.204;2022-10-16T11:18:30;13.10;;;9.70;;
57337;SDS011;43173;50.980;18.204;2022-10-16T11:21:08;13.40;;;9.80;;
57337;SDS011;43173;50.980;18.204;2022-10-16T11:26:29;15.00;;;10.10;;
57337;SDS011;43173;50.980;18.204;2022-10-16T11:29:00;18.30;;;10.60;;
57337;SDS011;43173;50.980;18.204;2022-10-16T11:34:19;13.10;;;10.00;;
57337;SDS011;43173;50.980;18.204;2022-10-16T11:37:08;13.10;;;10.20;;
57337;SDS011;43173;50.980;18.204;2022-10-16T11:39:38;16.10;;;10.50;;
57337;SDS011;43173;50.980;18.204;2022-10-16T11:45:15;15.70;;;10.30;;
57337;SDS011;43173;50.980;18.204;2022-10-16T11:47:35;12.70;;;10.20;;
57337;SDS011;43173;50.980;18.204;2022-10-16T11:52:57;12.50;;;9.40;;
57337;SDS011;43173;50.980;18.204;2022-10-16T11:55:28;11.80;;;10.20;;
57337;SDS011;43173;50.980;18.204;2022-10-16T11:57:58;13.10;;;10.10;;
57337;SDS011;43173;50.980;18.204;2022-10-16T12:00:28;13.10;;;9.60;;
57337;SDS011;43173;50.980;18.204;2022-10-16T12:03:01;13.50;;;10.40;;
57337;SDS011;43173;50.980;18.204;2022-10-16T12:10:47;15.40;;;9.30;;
57337;SDS011;43173;50.980;18.204;2022-10-16T12:18:38;11.90;;;9.90;;
57337;SDS011;43173;50.980;18.204;2022-10-16T12:21:11;14.10;;;10.90;;
57337;SDS011;43173;50.980;18.204;2022-10-16T12:26:23;12.20;;;10.20;;
57337;SDS011;43173;50.980;18.204;2022-10-16T12:28:53;13.50;;;10.20;;
57337;SDS011;43173;50.980;18.204;2022-10-16T12:31:20;11.90;;;10.40;;
57337;SDS011;43173;50.980;18.204;2022-10-16T12:33:54;12.60;;;9.70;;
57337;SDS011;43173;50.980;18.204;2022-10-16T12:36:32;16.30;;;11.00;;
57337;SDS011;43173;50.980;18.204;2022-10-16T12:38:58;14.70;;;10.10;;
57337;SDS011;43173;50.980;18.204;2022-10-16T12:41:26;15.50;;;10.80;;
57337;SDS011;43173;50.980;18.204;2022-10-16T12:43:53;19.20;;;11.10;;
57337;SDS011;43173;50.980;18.204;2022-10-16T12:48:45;15.80;;;10.70;;
57337;SDS011;43173;50.980;18.204;2022-10-16T12:53:58;13.10;;;10.20;;
57337;SDS011;43173;50.980;18.204;2022-10-16T13:08:10;11.40;;;9.20;;
57337;SDS011;43173;50.980;18.204;2022-10-16T13:22:51;13.20;;;9.90;;
57337;SDS011;43173;50.980;18.204;2022-10-16T13:25:30;12.90;;;10.00;;
57337;SDS011;43173;50.980;18.204;2022-10-16T13:28:08;13.20;;;10.10;;
57337;SDS011;43173;50.980;18.204;2022-10-16T13:30:38;12.20;;;9.90;;
57337;SDS011;43173;50.980;18.204;2022-10-16T13:35:50;12.70;;;9.20;;
57337;SDS011;43173;50.980;18.204;2022-10-16T13:38:23;17.50;;;10.90;;
57337;SDS011;43173;50.980;18.204;2022-10-16T13:40:53;13.00;;;9.80;;
57337;SDS011;43173;50.980;18.204;2022-10-16T13:43:19;11.20;;;9.80;;
57337;SDS011;43173;50.980;18.204;2022-10-16T13:45:55;11.90;;;9.80;;
57337;SDS011;43173;50.980;18.204;2022-10-16T13:48:22;12.40;;;9.90;;
57337;SDS011;43173;50.980;18.204;2022-10-16T13:53:36;11.80;;;10.20;;
57337;SDS011;43173;50.980;18.204;2022-10-16T13:56:02;12.60;;;10.00;;
57337;SDS011;43173;50.980;18.204;2022-10-16T13:58:29;13.20;;;10.10;;
57337;SDS011;43173;50.980;18.204;2022-10-16T14:00:58;10.70;;;9.00;;
57337;SDS011;43173;50.980;18.204;2022-10-16T14:03:26;12.20;;;9.10;;
57337;SDS011;43173;50.980;18.204;2022-10-16T14:05:53;11.00;;;9.20;;
57337;SDS011;43173;50.980;18.204;2022-10-16T14:10:50;10.40;;;8.40;;
57337;SDS011;43173;50.980;18.204;2022-10-16T14:13:18;11.50;;;8.50;;
57337;SDS011;43173;50.980;18.204;2022-10-16T14:15:47;13.30;;;9.00;;
57337;SDS011;43173;50.980;18.204;2022-10-16T14:18:20;11.20;;;8.70;;
57337;SDS011;43173;50.980;18.204;2022-10-16T14:20:47;12.60;;;9.00;;
57337;SDS011;43173;50.980;18.204;2022-10-16T14:25:47;9.90;;;8.40;;
57337;SDS011;43173;50.980;18.204;2022-10-16T14:30:48;12.50;;;9.40;;
57337;SDS011;43173;50.980;18.204;2022-10-16T14:33:22;12.00;;;8.90;;
57337;SDS011;43173;50.980;18.204;2022-10-16T14:35:59;12.70;;;9.40;;
57337;SDS011;43173;50.980;18.204;2022-10-16T14:38:25;13.00;;;9.30;;
57337;SDS011;43173;50.980;18.204;2022-10-16T14:40:51;12.30;;;10.30;;
57337;SDS011;43173;50.980;18.204;2022-10-16T14:43:21;16.20;;;10.00;;
57337;SDS011;43173;50.980;18.204;2022-10-16T14:45:54;13.70;;;10.60;;
57337;SDS011;43173;50.980;18.204;2022-10-16T14:48:21;14.70;;;10.50;;
57337;SDS011;43173;50.980;18.204;2022-10-16T14:50:46;13.60;;;10.50;;
57337;SDS011;43173;50.980;18.204;2022-10-16T14:53:12;15.50;;;10.80;;
57337;SDS011;43173;50.980;18.204;2022-10-16T14:55:39;13.60;;;10.00;;
57337;SDS011;43173;50.980;18.204;2022-10-16T14:58:08;11.90;;;10.10;;
57337;SDS011;43173;50.980;18.204;2022-10-16T15:00:39;13.70;;;10.20;;
57337;SDS011;43173;50.980;18.204;2022-10-16T15:03:05;12.50;;;9.90;;
57337;SDS011;43173;50.980;18.204;2022-10-16T15:05:30;13.00;;;10.50;;
57337;SDS011;43173;50.980;18.204;2022-10-16T15:07:57;14.10;;;11.10;;
57337;SDS011;43173;50.980;18.204;2022-10-16T15:10:24;16.90;;;12.20;;
57337;SDS011;43173;50.980;18.204;2022-10-16T15:12:51;14.60;;;11.50;;
57337;SDS011;43173;50.980;18.204;2022-10-16T15:17:52;15.20;;;12.40;;
57337;SDS011;43173;50.980;18.204;2022-10-16T15:20:21;17.00;;;12.70;;
57337;SDS011;43173;50.980;18.204;2022-10-16T15:22:51;16.50;;;13.00;;
57337;SDS011;43173;50.980;18.204;2022-10-16T15:27:50;18.50;;;13.50;;
57337;SDS011;43173;50.980;18.204;2022-10-16T15:30:16;19.50;;;13.50;;
57337;SDS011;43173;50.980;18.204;2022-10-16T15:32:41;19.00;;;14.40;;
57337;SDS011;43173;50.980;18.204;2022-10-16T15:35:10;25.90;;;18.70;;
57337;SDS011;43173;50.980;18.204;2022-10-16T15:37:35;31.90;;;22.50;;
57337;SDS011;43173;50.980;18.204;2022-10-16T15:40:01;20.60;;;15.10;;
57337;SDS011;43173;50.980;18.204;2022-10-16T15:42:27;24.50;;;17.00;;
57337;SDS011;43173;50.980;18.204;2022-10-16T15:44:52;27.70;;;18.00;;
57337;SDS011;43173;50.980;18.204;2022-10-16T15:47:18;28.20;;;17.30;;
57337;SDS011;43173;50.980;18.204;2022-10-16T15:49:44;33.90;;;20.60;;
57337;SDS011;43173;50.980;18.204;2022-10-16T15:52:09;37.90;;;23.50;;
57337;SDS011;43173;50.980;18.204;2022-10-16T15:54:35;37.90;;;26.60;;
57337;SDS011;43173;50.980;18.204;2022-10-16T15:57:00;35.10;;;23.20;;
57337;SDS011;43173;50.980;18.204;2022-10-16T15:59:26;28.90;;;20.00;;
57337;SDS011;43173;50.980;18.204;2022-10-16T16:01:51;21.90;;;16.40;;
57337;SDS011;43173;50.980;18.204;2022-10-16T16:04:17;30.30;;;21.10;;
57337;SDS011;43173;50.980;18.204;2022-10-16T16:06:43;35.90;;;24.90;;
57337;SDS011;43173;50.980;18.204;2022-10-16T16:09:13;25.30;;;16.40;;
57337;SDS011;43173;50.980;18.204;2022-10-16T16:11:39;24.00;;;15.40;;
57337;SDS011;43173;50.980;18.204;2022-10-16T16:14:09;25.70;;;17.50;;
57337;SDS011;43173;50.980;18.204;2022-10-16T16:16:38;26.50;;;16.90;;
57337;SDS011;43173;50.980;18.204;2022-10-16T16:19:04;36.00;;;27.40;;
57337;SDS011;43173;50.980;18.204;2022-10-16T16:21:31;21.60;;;15.50;;
57337;SDS011;43173;50.980;18.204;2022-10-16T16:23:57;23.10;;;16.10;;
57337;SDS011;43173;50.980;18.204;2022-10-16T16:26:27;44.50;;;32.10;;
57337;SDS011;43173;50.980;18.204;2022-10-16T16:28:57;26.40;;;16.30;;
57337;SDS011;43173;50.980;18.204;2022-10-16T16:31:24;28.00;;;18.80;;
57337;SDS011;43173;50.980;18.204;2022-10-16T16:33:50;29.80;;;20.20;;
57337;SDS011;43173;50.980;18.204;2022-10-16T16:36:16;27.90;;;18.30;;
57337;SDS011;43173;50.980;18.204;2022-10-16T16:38:43;41.80;;;27.70;;
57337;SDS011;43173;50.980;18.204;2022-10-16T16:41:17;27.70;;;20.00;;
57337;SDS011;43173;50.980;18.204;2022-10-16T16:43:44;29.50;;;21.40;;
57337;SDS011;43173;50.980;18.204;2022-10-16T16:46:10;26.10;;;18.30;;
57337;SDS011;43173;50.980;18.204;2022-10-16T16:48:37;42.70;;;26.60;;
57337;SDS011;43173;50.980;18.204;2022-10-16T16:51:04;26.60;;;18.80;;